Time;durP1;ratioP1;P1;durP2;ratioP2;P2;SDS_P1;SDS_P2;PMS_P1;PMS_P2;Temp;Humidity;BMP_temperature;BMP_pressure;BME280_temperature;BME280_humidity;BME280_pressure;Samples;Min_cycle;Max_cycle;Signal;HPM_P1;HPM_P2
2022/03/30 00:01:44;;;;;;;29.73;23.80;;;12.90;58.80;;;;;;5088529;28;20468;-69
2022/03/30 00:04:11;;;;;;;34.37;24.03;;;12.90;58.50;;;;;;5088583;28;20441;-69
2022/03/30 00:06:39;;;;;;;37.43;24.77;;;12.90;58.60;;;;;;5088716;28;20456;-69
2022/03/30 00:09:06;;;;;;;29.87;23.73;;;12.90;58.80;;;;;;5088293;28;21025;-69
2022/03/30 00:11:33;;;;;;;27.10;21.77;;;12.90;58.80;;;;;;5088765;28;20539;-68
2022/03/30 00:13:59;;;;;;;28.67;22.27;;;12.90;58.90;;;;;;5088607;28;20444;-68
2022/03/30 00:16:26;;;;;;;28.10;23.17;;;12.90;58.80;;;;;;5086160;28;20828;-68
2022/03/30 00:18:53;;;;;;;29.67;22.30;;;12.90;59.00;;;;;;5087707;28;20459;-68
2022/03/30 00:21:20;;;;;;;31.37;24.57;;;12.80;59.00;;;;;;5087972;28;20468;-68
2022/03/30 00:23:48;;;;;;;31.47;24.17;;;12.90;58.90;;;;;;5087677;28;20479;-69
2022/03/30 00:26:15;;;;;;;29.37;22.40;;;12.80;58.90;;;;;;5088400;28;20453;-69
2022/03/30 00:28:42;;;;;;;33.90;22.47;;;12.80;59.00;;;;;;5088063;28;20484;-69
2022/03/30 00:31:11;;;;;;;36.43;23.90;;;12.80;59.40;;;;;;5087769;28;20469;-69
2022/03/30 00:33:38;;;;;;;27.90;22.23;;;12.80;59.80;;;;;;5087714;28;20473;-68
2022/03/30 00:36:05;;;;;;;30.60;22.00;;;12.80;59.70;;;;;;5088290;28;20458;-68
2022/03/30 00:38:32;;;;;;;28.13;22.70;;;12.80;59.60;;;;;;5083608;28;20456;-68
2022/03/30 00:41:01;;;;;;;30.30;22.60;;;12.80;58.80;;;;;;5072587;28;20848;-67
2022/03/30 00:43:28;;;;;;;29.70;22.73;;;12.80;58.90;;;;;;5072615;28;20859;-67
2022/03/30 00:45:55;;;;;;;36.83;23.20;;;12.80;59.00;;;;;;5072932;28;20798;-67
2022/03/30 00:48:22;;;;;;;27.50;22.73;;;12.80;58.80;;;;;;5072840;28;20523;-67
2022/03/30 00:50:48;;;;;;;29.37;23.57;;;12.80;58.70;;;;;;5072753;28;20476;-67
2022/03/30 00:53:15;;;;;;;29.23;21.60;;;12.80;59.00;;;;;;5072472;28;20955;-67
2022/03/30 00:55:42;;;;;;;29.27;21.77;;;12.80;59.00;;;;;;5072819;28;20445;-67
2022/03/30 00:58:10;;;;;;;31.20;24.07;;;12.80;59.20;;;;;;5072637;28;20471;-67
2022/03/30 01:00:37;;;;;;;29.30;22.63;;;12.70;59.20;;;;;;5075394;28;20444;-67
2022/03/30 01:03:04;;;;;;;29.33;22.70;;;12.70;59.10;;;;;;5076215;28;20445;-67
2022/03/30 01:05:32;;;;;;;28.43;22.50;;;12.70;59.20;;;;;;5076501;28;20444;-67
2022/03/30 01:07:59;;;;;;;29.30;21.10;;;12.70;59.30;;;;;;5076204;28;20460;-68
2022/03/30 01:10:26;;;;;;;32.53;22.93;;;12.70;59.20;;;;;;5076047;28;20492;-67
2022/03/30 01:12:54;;;;;;;31.00;21.67;;;12.70;59.10;;;;;;5076101;28;20460;-68
2022/03/30 01:15:23;;;;;;;28.67;22.57;;;12.70;59.40;;;;;;5076057;28;20490;-67
2022/03/30 01:17:49;;;;;;;30.23;22.60;;;12.60;59.30;;;;;;5076019;28;20452;-67
2022/03/30 01:20:22;;;;;;;30.10;21.00;;;12.60;59.30;;;;;;5075837;28;20486;-67
2022/03/30 01:22:51;;;;;;;25.53;20.67;;;12.60;59.40;;;;;;5075961;28;20436;-67
2022/03/30 01:25:18;;;;;;;32.33;22.97;;;12.60;59.40;;;;;;5075578;28;20943;-68
2022/03/30 01:27:45;;;;;;;27.67;21.60;;;12.50;59.50;;;;;;5075875;28;20854;-67
2022/03/30 01:33:02;;;;;;;32.20;23.73;;;12.50;59.30;;;;;;5076047;28;20899;-67
2022/03/30 01:35:29;;;;;;;26.50;22.47;;;12.40;59.00;;;;;;5076004;28;20787;-67
2022/03/30 01:37:57;;;;;;;27.17;19.93;;;12.40;58.80;;;;;;5076082;28;20487;-68
2022/03/30 01:40:24;;;;;;;25.20;20.73;;;12.40;58.90;;;;;;5075840;28;20903;-67
2022/03/30 01:42:51;;;;;;;38.20;21.20;;;12.40;59.00;;;;;;5075711;28;20448;-68
2022/03/30 01:45:18;;;;;;;26.30;20.93;;;12.40;59.00;;;;;;5075616;28;20463;-67
2022/03/30 01:47:52;;;;;;;29.50;21.90;;;12.30;59.10;;;;;;5076035;28;20452;-67
2022/03/30 01:50:19;;;;;;;29.87;20.80;;;12.30;59.20;;;;;;5075079;28;21005;-67
2022/03/30 01:52:46;;;;;;;30.70;22.40;;;12.30;59.20;;;;;;5075355;28;20495;-67
2022/03/30 01:55:15;;;;;;;33.90;21.73;;;12.30;59.20;;;;;;5075050;28;20951;-67
2022/03/30 01:57:42;;;;;;;30.00;21.27;;;12.20;59.10;;;;;;5075279;28;20448;-67
2022/03/30 02:00:11;;;;;;;34.00;21.60;;;12.20;59.20;;;;;;5075214;28;20460;-67
2022/03/30 02:02:39;;;;;;;29.43;20.57;;;12.20;59.30;;;;;;5089508;28;20903;-68
2022/03/30 02:05:08;;;;;;;35.97;20.93;;;12.20;59.40;;;;;;5089463;28;20456;-68
2022/03/30 02:07:35;;;;;;;31.80;22.00;;;12.20;59.20;;;;;;5088419;28;20916;-68
2022/03/30 02:10:02;;;;;;;28.67;22.03;;;12.10;59.20;;;;;;5088985;28;20483;-68
2022/03/30 02:12:30;;;;;;;31.33;21.73;;;12.00;59.30;;;;;;5087847;28;20475;-69
2022/03/30 02:14:58;;;;;;;32.63;22.20;;;12.00;59.40;;;;;;5088593;28;20445;-69
2022/03/30 02:17:26;;;;;;;28.07;21.40;;;12.00;59.40;;;;;;5087975;28;20890;-68
2022/03/30 02:19:54;;;;;;;31.87;21.80;;;12.00;59.40;;;;;;5086844;28;20492;-68
2022/03/30 02:22:22;;;;;;;31.57;22.17;;;12.00;59.70;;;;;;5087542;28;20460;-68
2022/03/30 02:24:48;;;;;;;30.40;22.47;;;12.00;59.60;;;;;;5087814;28;20475;-68
2022/03/30 02:27:15;;;;;;;38.67;23.63;;;12.00;59.70;;;;;;5087947;28;20447;-68
2022/03/30 02:29:43;;;;;;;33.13;23.63;;;12.00;59.80;;;;;;5092543;28;20535;-68
2022/03/30 02:32:10;;;;;;;31.97;20.70;;;12.00;59.80;;;;;;5099440;28;20460;-70
2022/03/30 02:34:37;;;;;;;28.00;21.23;;;12.00;59.80;;;;;;5099661;28;20448;-70
2022/03/30 02:37:04;;;;;;;31.60;22.43;;;12.00;59.90;;;;;;5090736;28;20451;-69
2022/03/30 02:39:30;;;;;;;32.17;21.90;;;12.00;60.00;;;;;;5089260;28;20444;-69
2022/03/30 02:41:57;;;;;;;32.07;20.90;;;11.90;60.00;;;;;;5088623;28;20472;-68
2022/03/30 02:44:24;;;;;;;31.30;22.23;;;12.00;60.10;;;;;;5086636;28;20448;-68
2022/03/30 02:46:52;;;;;;;27.77;20.17;;;11.90;60.10;;;;;;5087374;28;20456;-68
2022/03/30 02:49:19;;;;;;;31.37;22.63;;;12.00;61.10;;;;;;5087793;28;20480;-68
2022/03/30 02:51:46;;;;;;;33.23;22.03;;;11.90;60.10;;;;;;5087556;28;20465;-68
2022/03/30 02:54:13;;;;;;;31.83;20.57;;;11.90;60.10;;;;;;5087313;28;20455;-68
2022/03/30 02:56:40;;;;;;;34.10;21.50;;;11.90;60.30;;;;;;5086885;28;20448;-68
2022/03/30 02:59:07;;;;;;;28.60;22.00;;;11.80;60.20;;;;;;5087174;28;20468;-68
2022/03/30 03:01:34;;;;;;;28.53;21.10;;;11.80;60.10;;;;;;5086925;28;20998;-68
2022/03/30 03:04:02;;;;;;;30.70;23.40;;;11.80;60.10;;;;;;5087822;28;20449;-68
2022/03/30 03:06:28;;;;;;;36.43;22.37;;;11.80;60.40;;;;;;5087426;28;20448;-68
2022/03/30 03:08:57;;;;;;;34.37;21.47;;;11.70;60.50;;;;;;5087484;28;20452;-68
2022/03/30 03:11:24;;;;;;;33.27;23.20;;;11.70;60.50;;;;;;5087464;28;20465;-68
2022/03/30 03:13:51;;;;;;;34.43;23.00;;;11.70;60.80;;;;;;5087392;28;20449;-68
2022/03/30 03:16:18;;;;;;;33.50;23.30;;;11.70;60.90;;;;;;5087287;28;20448;-68
2022/03/30 03:18:45;;;;;;;31.80;21.53;;;11.60;61.10;;;;;;5087385;28;20492;-68
2022/03/30 03:21:13;;;;;;;27.60;21.70;;;11.60;61.30;;;;;;5088011;28;20819;-68
2022/03/30 03:23:41;;;;;;;34.87;22.20;;;11.60;61.40;;;;;;5087421;28;20697;-69
2022/03/30 03:26:08;;;;;;;29.23;21.90;;;11.50;61.40;;;;;;5087740;28;20464;-69
2022/03/30 03:28:34;;;;;;;27.63;19.63;;;11.50;61.40;;;;;;5088085;28;20452;-69
2022/03/30 03:31:01;;;;;;;30.60;22.27;;;11.50;61.40;;;;;;5087939;28;20488;-69
2022/03/30 03:33:28;;;;;;;30.47;22.63;;;11.40;61.40;;;;;;5087009;28;20826;-69
2022/03/30 03:35:54;;;;;;;28.40;22.43;;;11.40;61.50;;;;;;5088251;28;20449;-69
2022/03/30 03:38:23;;;;;;;30.97;22.20;;;11.30;61.40;;;;;;5088110;28;20478;-69
2022/03/30 03:40:50;;;;;;;30.03;22.30;;;11.30;61.90;;;;;;5087315;28;20465;-69
2022/03/30 03:43:17;;;;;;;35.80;22.70;;;11.30;61.90;;;;;;5090301;28;20524;-69
2022/03/30 03:45:44;;;;;;;34.20;22.00;;;11.30;62.00;;;;;;5091443;28;20445;-68
2022/03/30 03:48:11;;;;;;;26.93;20.50;;;11.30;62.10;;;;;;5089047;28;20440;-69
2022/03/30 03:50:38;;;;;;;26.60;20.80;;;11.20;62.40;;;;;;5087485;28;20848;-68
2022/03/30 03:53:04;;;;;;;34.27;21.37;;;11.20;62.70;;;;;;5088257;28;20459;-68
2022/03/30 03:55:36;;;;;;;32.93;20.50;;;11.10;62.60;;;;;;5088422;28;20448;-68
2022/03/30 03:58:05;;;;;;;38.93;22.37;;;11.20;63.10;;;;;;5087507;28;20467;-68
2022/03/30 04:00:33;;;;;;;29.60;20.37;;;11.10;63.30;;;;;;5087851;28;20448;-68
2022/03/30 04:03:00;;;;;;;36.67;22.03;;;11.10;63.50;;;;;;5087520;28;20453;-70
2022/03/30 04:05:27;;;;;;;31.03;21.80;;;11.10;63.50;;;;;;5087781;28;20445;-68
2022/03/30 04:07:54;;;;;;;30.43;20.57;;;11.00;63.50;;;;;;5088584;28;20448;-68
2022/03/30 04:10:21;;;;;;;33.40;20.97;;;11.10;64.50;;;;;;5087749;28;20488;-69
2022/03/30 04:12:49;;;;;;;34.83;21.90;;;11.00;63.60;;;;;;5090785;28;20460;-69
2022/03/30 04:15:16;;;;;;;29.10;20.00;;;11.00;64.00;;;;;;5075133;28;20444;-68
2022/03/30 04:17:44;;;;;;;37.77;22.00;;;11.00;64.30;;;;;;5073036;28;20803;-68
2022/03/30 04:20:12;;;;;;;30.30;20.40;;;11.00;65.10;;;;;;5072947;28;20484;-67
2022/03/30 04:22:40;;;;;;;36.27;22.30;;;11.00;64.30;;;;;;5072930;28;20521;-68
2022/03/30 04:25:08;;;;;;;37.83;23.70;;;11.00;64.40;;;;;;5073014;28;20826;-67
2022/03/30 04:27:35;;;;;;;32.23;21.97;;;10.90;64.50;;;;;;5073298;28;20448;-67
2022/03/30 04:30:04;;;;;;;36.83;24.07;;;10.90;64.60;;;;;;5073157;28;20485;-68
2022/03/30 04:32:31;;;;;;;34.40;22.53;;;10.90;64.80;;;;;;5072881;28;20481;-68
2022/03/30 04:34:58;;;;;;;32.20;22.00;;;10.90;65.10;;;;;;5074747;28;20452;-68
2022/03/30 04:37:25;;;;;;;37.40;22.67;;;10.90;65.30;;;;;;5077127;28;20444;-68
2022/03/30 04:39:52;;;;;;;31.70;21.77;;;10.90;65.40;;;;;;5076721;28;20444;-68
2022/03/30 04:42:20;;;;;;;31.63;21.60;;;10.80;65.40;;;;;;5076721;28;20466;-68
2022/03/30 04:44:47;;;;;;;35.07;22.07;;;10.90;65.70;;;;;;5076538;28;20488;-67
2022/03/30 04:47:15;;;;;;;37.90;22.10;;;10.90;65.40;;;;;;5076703;28;20814;-67
2022/03/30 04:49:42;;;;;;;28.93;20.93;;;10.80;65.40;;;;;;5076457;28;20481;-68
2022/03/30 04:52:10;;;;;;;45.17;23.90;;;10.80;65.50;;;;;;5076684;28;20460;-67
2022/03/30 04:54:37;;;;;;;38.93;23.33;;;10.80;65.60;;;;;;5076963;28;20478;-68
2022/03/30 04:57:04;;;;;;;32.50;22.03;;;10.80;65.80;;;;;;5076415;28;20455;-68
2022/03/30 04:59:31;;;;;;;36.47;22.03;;;10.80;66.00;;;;;;5076785;28;20452;-68
2022/03/30 05:01:58;;;;;;;30.83;20.70;;;10.80;66.00;;;;;;5076013;28;21006;-68
2022/03/30 05:04:26;;;;;;;36.20;23.17;;;10.80;65.90;;;;;;5077114;28;20444;-67
2022/03/30 05:06:53;;;;;;;36.13;24.40;;;10.80;65.80;;;;;;5077778;28;20444;-68
2022/03/30 05:09:19;;;;;;;37.03;23.30;;;10.70;65.80;;;;;;5075984;28;20459;-68
2022/03/30 05:11:46;;;;;;;36.67;22.50;;;10.70;66.00;;;;;;5076094;28;20837;-67
2022/03/30 05:14:13;;;;;;;33.50;22.87;;;10.60;66.00;;;;;;5076107;28;20474;-68
2022/03/30 05:16:40;;;;;;;33.37;24.60;;;10.60;66.20;;;;;;5076112;28;20468;-68
2022/03/30 05:19:07;;;;;;;33.07;23.73;;;10.60;66.40;;;;;;5075834;28;20470;-67
2022/03/30 05:21:35;;;;;;;38.50;26.33;;;10.60;66.60;;;;;;5075943;28;20502;-68
2022/03/30 05:24:01;;;;;;;40.47;24.37;;;10.60;66.70;;;;;;5075950;28;20467;-67
2022/03/30 05:26:28;;;;;;;38.87;24.50;;;10.60;66.90;;;;;;5075657;28;20939;-68
2022/03/30 05:28:55;;;;;;;38.60;23.33;;;10.60;67.00;;;;;;5075723;28;20893;-68
2022/03/30 05:31:22;;;;;;;40.07;23.70;;;10.60;67.00;;;;;;5075727;28;20496;-68
2022/03/30 05:33:49;;;;;;;35.80;22.33;;;10.60;67.20;;;;;;5076123;28;20448;-68
2022/03/30 05:36:18;;;;;;;35.17;22.47;;;10.50;67.20;;;;;;5075836;28;20457;-68
2022/03/30 05:38:48;;;;;;;35.50;23.47;;;10.60;67.40;;;;;;5074462;28;20484;-68
2022/03/30 05:41:15;;;;;;;39.60;22.83;;;10.50;67.30;;;;;;5075853;28;20465;-68
2022/03/30 05:43:41;;;;;;;33.40;21.27;;;10.60;67.30;;;;;;5075815;28;20459;-68
2022/03/30 05:46:08;;;;;;;38.83;24.27;;;10.60;67.20;;;;;;5074477;28;20449;-68
2022/03/30 05:48:35;;;;;;;35.40;23.20;;;10.60;67.30;;;;;;5075542;28;20478;-68
2022/03/30 05:51:02;;;;;;;30.57;20.47;;;10.60;67.40;;;;;;5075527;28;20499;-68
2022/03/30 05:53:28;;;;;;;39.97;24.20;;;10.60;67.40;;;;;;5075512;28;20448;-68
2022/03/30 05:55:57;;;;;;;35.40;23.40;;;10.60;67.40;;;;;;5075457;28;20441;-68
2022/03/30 05:58:23;;;;;;;38.50;24.07;;;10.50;67.20;;;;;;5075381;28;20471;-68
2022/03/30 06:00:51;;;;;;;41.43;24.60;;;10.50;67.40;;;;;;5075298;28;20473;-68
2022/03/30 06:03:18;;;;;;;33.30;22.20;;;10.50;67.50;;;;;;5075512;28;20440;-68
2022/03/30 06:05:45;;;;;;;31.73;22.70;;;10.50;67.40;;;;;;5075191;28;20962;-68
2022/03/30 06:08:11;;;;;;;35.53;22.23;;;10.40;67.30;;;;;;5075319;28;20443;-68
2022/03/30 06:10:39;;;;;;;35.23;21.80;;;10.40;67.30;;;;;;5074928;28;20840;-68
2022/03/30 06:13:08;;;;;;;32.80;22.80;;;10.40;67.40;;;;;;5074849;28;20459;-68
2022/03/30 06:15:35;;;;;;;42.37;24.20;;;10.40;67.40;;;;;;5074972;28;20971;-67
2022/03/30 06:18:03;;;;;;;34.10;22.97;;;10.40;67.30;;;;;;5075087;28;20449;-68
2022/03/30 06:20:30;;;;;;;35.93;20.37;;;10.40;67.50;;;;;;5085097;28;20792;-68
2022/03/30 06:22:57;;;;;;;33.57;21.50;;;10.40;67.50;;;;;;5087317;28;20455;-69
2022/03/30 06:25:25;;;;;;;30.97;19.97;;;10.40;67.50;;;;;;5087409;28;20977;-69
2022/03/30 06:27:53;;;;;;;37.20;23.40;;;10.30;67.50;;;;;;5086105;28;20445;-69
2022/03/30 06:30:21;;;;;;;43.80;23.50;;;10.30;67.80;;;;;;5085848;28;20487;-69
2022/03/30 06:32:49;;;;;;;34.20;22.23;;;10.40;67.90;;;;;;5086544;28;20797;-69
2022/03/30 06:35:17;;;;;;;36.80;23.87;;;10.40;68.20;;;;;;5086292;28;20802;-69
2022/03/30 06:37:44;;;;;;;33.43;22.23;;;10.40;68.40;;;;;;5086778;28;20506;-69
2022/03/30 06:40:12;;;;;;;39.63;22.17;;;10.40;68.40;;;;;;5086765;28;20445;-69
2022/03/30 06:42:39;;;;;;;33.50;22.10;;;10.40;68.20;;;;;;5086766;28;20488;-70
2022/03/30 06:45:08;;;;;;;34.90;21.43;;;10.40;68.60;;;;;;5088179;28;20445;-70
2022/03/30 06:47:36;;;;;;;31.50;19.50;;;10.40;68.90;;;;;;5099545;28;20507;-70
2022/03/30 06:50:05;;;;;;;32.43;20.70;;;10.50;69.00;;;;;;5098952;28;20453;-70
2022/03/30 06:52:35;;;;;;;30.13;21.50;;;10.60;69.30;;;;;;5091607;28;20472;-70
2022/03/30 06:55:02;;;;;;;41.57;21.67;;;10.60;69.30;;;;;;5086695;28;20498;-70
2022/03/30 06:57:29;;;;;;;30.97;21.70;;;10.70;69.10;;;;;;5085848;28;20487;-69
2022/03/30 06:59:56;;;;;;;32.93;20.10;;;10.80;69.00;;;;;;5085071;28;20456;-70
2022/03/30 07:02:22;;;;;;;32.33;21.00;;;10.80;69.00;;;;;;5084586;28;20472;-70
2022/03/30 07:04:51;;;;;;;39.63;23.43;;;10.90;68.80;;;;;;5084080;28;20444;-69
2022/03/30 07:10:16;;;;;;;30.93;20.87;;;11.00;68.30;;;;;;5087348;28;20846;-69
2022/03/30 07:12:45;;;;;;;39.10;22.60;;;11.00;68.00;;;;;;5085924;28;20472;-69
2022/03/30 07:15:12;;;;;;;37.80;21.83;;;11.10;67.50;;;;;;5085100;28;20484;-69
2022/03/30 07:17:46;;;;;;;37.40;22.53;;;11.10;67.30;;;;;;5086225;28;20452;-69
2022/03/30 07:20:15;;;;;;;33.40;20.87;;;11.10;67.20;;;;;;5086719;28;20482;-69
2022/03/30 07:22:43;;;;;;;39.70;24.97;;;11.20;67.20;;;;;;5087229;28;20465;-70
2022/03/30 07:25:10;;;;;;;33.27;21.50;;;11.30;67.20;;;;;;5087210;28;20441;-70
2022/03/30 07:27:39;;;;;;;33.30;23.50;;;11.30;67.00;;;;;;5085312;28;20454;-70
2022/03/30 07:30:08;;;;;;;39.30;25.07;;;11.40;66.40;;;;;;5086502;28;20445;-70
2022/03/30 07:32:36;;;;;;;42.83;26.80;;;11.40;66.10;;;;;;5085909;28;20469;-70
2022/03/30 07:35:04;;;;;;;43.80;30.30;;;11.50;66.20;;;;;;5089006;28;20445;-70
2022/03/30 07:37:32;;;;;;;40.90;27.30;;;11.50;65.80;;;;;;5089813;28;20452;-70
2022/03/30 07:39:59;;;;;;;43.93;28.70;;;11.60;65.20;;;;;;5089131;28;20452;-70
2022/03/30 07:42:26;;;;;;;32.20;24.00;;;11.60;65.70;;;;;;5092176;28;20461;-70
2022/03/30 07:44:53;;;;;;;37.30;26.13;;;11.70;64.60;;;;;;5094789;28;20444;-70
2022/03/30 07:47:20;;;;;;;36.57;23.83;;;11.70;64.30;;;;;;5091838;28;20452;-70
2022/03/30 07:49:47;;;;;;;34.40;24.53;;;11.70;63.90;;;;;;5087654;28;20479;-70
2022/03/30 07:52:14;;;;;;;36.73;22.43;;;11.70;63.40;;;;;;5087973;28;20493;-70
2022/03/30 07:54:42;;;;;;;37.60;24.90;;;11.70;63.60;;;;;;5088389;28;20813;-70
2022/03/30 07:57:10;;;;;;;37.10;24.60;;;11.70;63.70;;;;;;5088371;28;20447;-70
2022/03/30 07:59:36;;;;;;;35.63;24.37;;;11.80;63.60;;;;;;5088327;28;20453;-70
2022/03/30 08:02:04;;;;;;;34.07;24.23;;;11.90;63.40;;;;;;5086958;28;20471;-70
2022/03/30 08:04:30;;;;;;;32.93;23.80;;;12.00;63.10;;;;;;5089443;28;20420;-70
2022/03/30 08:06:57;;;;;;;33.00;23.50;;;12.10;62.80;;;;;;5089397;28;20475;-69
2022/03/30 08:09:24;;;;;;;32.40;23.87;;;12.20;62.30;;;;;;5089745;28;20445;-69
2022/03/30 08:11:53;;;;;;;31.60;23.07;;;12.20;61.80;;;;;;5092784;28;20496;-69
2022/03/30 08:14:20;;;;;;;30.20;20.73;;;12.30;61.90;;;;;;5093805;28;20425;-69
2022/03/30 08:16:47;;;;;;;32.07;22.30;;;12.40;62.10;;;;;;5093517;28;20452;-69
2022/03/30 08:19:14;;;;;;;40.63;23.17;;;12.50;61.80;;;;;;5092584;28;20449;-69
2022/03/30 08:24:25;;;;;;;33.33;23.00;;;12.70;61.30;;;;;;5093128;28;20400;-69
2022/03/30 08:26:53;;;;;;;33.77;23.43;;;12.80;60.80;;;;;;5091401;28;20451;-77
2022/03/30 08:29:19;;;;;;;31.47;21.73;;;12.90;60.80;;;;;;5091552;28;20456;-68
2022/03/30 08:31:47;;;;;;;30.93;20.93;;;13.00;59.60;;;;;;5090641;28;20491;-68
2022/03/30 08:34:14;;;;;;;31.97;22.27;;;13.20;59.40;;;;;;5092198;28;20436;-69
2022/03/30 08:36:41;;;;;;;36.97;20.67;;;13.30;59.00;;;;;;5092533;28;20452;-68
2022/03/30 08:39:11;;;;;;;32.50;22.80;;;13.40;58.80;;;;;;5091965;28;20453;-68
2022/03/30 08:41:41;;;;;;;25.90;18.40;;;13.50;58.40;;;;;;5091651;28;20461;-68
2022/03/30 08:44:09;;;;;;;27.47;20.70;;;13.60;58.00;;;;;;5092042;28;20433;-68
2022/03/30 08:46:38;;;;;;;32.23;20.07;;;13.70;57.60;;;;;;5092440;28;20453;-69
2022/03/30 08:49:05;;;;;;;26.63;19.20;;;13.80;56.70;;;;;;5092725;28;20444;-69
2022/03/30 08:51:33;;;;;;;29.10;19.93;;;14.00;57.00;;;;;;5091513;28;20498;-69
2022/03/30 08:53:59;;;;;;;37.57;19.70;;;14.10;56.40;;;;;;5093115;28;20935;-69
2022/03/30 08:56:28;;;;;;;27.17;20.20;;;14.30;56.20;;;;;;5092695;28;20437;-69
2022/03/30 08:58:56;;;;;;;28.37;18.93;;;14.40;54.90;;;;;;5093053;28;20443;-70
2022/03/30 09:01:25;;;;;;;23.37;18.23;;;14.50;54.50;;;;;;5092570;28;20480;-70
2022/03/30 09:03:59;;;;;;;25.97;19.00;;;14.50;54.50;;;;;;5088723;28;20466;-68
2022/03/30 09:06:34;;;;;;;27.20;18.00;;;14.70;54.30;;;;;;5076709;28;20471;-68
2022/03/30 09:09:01;;;;;;;28.63;19.93;;;14.80;54.00;;;;;;5076906;28;20436;-68
2022/03/30 09:11:30;;;;;;;28.73;19.90;;;14.90;53.50;;;;;;5076794;28;20492;-68
2022/03/30 09:14:04;;;;;;;30.73;19.00;;;15.00;53.30;;;;;;5076262;28;20451;-68
2022/03/30 09:16:43;;;;;;;24.37;17.13;;;15.20;53.20;;;;;;5076206;28;20931;-68
2022/03/30 09:19:13;;;;;;;22.77;16.57;;;15.40;52.20;;;;;;5076547;28;20453;-68
2022/03/30 09:21:41;;;;;;;25.10;19.10;;;15.60;51.60;;;;;;5076232;28;20492;-68
2022/03/30 09:24:08;;;;;;;29.57;18.73;;;15.90;51.20;;;;;;5076592;28;20476;-68
2022/03/30 09:26:36;;;;;;;22.07;16.07;;;16.10;50.50;;;;;;5076594;28;20857;-68
2022/03/30 09:29:04;;;;;;;22.20;16.67;;;16.30;49.90;;;;;;5076269;28;21001;-69
2022/03/30 09:31:32;;;;;;;20.60;15.27;;;16.50;49.60;;;;;;5076431;28;20541;-68
2022/03/30 09:34:01;;;;;;;25.77;16.47;;;16.60;48.10;;;;;;5076554;28;20445;-68
2022/03/30 09:36:30;;;;;;;25.00;17.87;;;16.70;47.90;;;;;;5076974;28;20531;-69
2022/03/30 09:38:59;;;;;;;19.50;15.90;;;16.70;47.40;;;;;;5077084;28;20444;-69
2022/03/30 09:41:26;;;;;;;21.70;15.80;;;16.60;46.80;;;;;;5076409;28;20461;-68
2022/03/30 09:44:03;;;;;;;23.23;17.50;;;16.50;47.10;;;;;;5076232;28;20460;-68
2022/03/30 09:46:31;;;;;;;20.33;16.83;;;16.50;47.50;;;;;;5076317;28;20478;-68
2022/03/30 09:48:58;;;;;;;22.63;14.47;;;16.50;47.80;;;;;;5076049;28;20936;-68
2022/03/30 09:51:29;;;;;;;18.60;15.17;;;16.70;48.10;;;;;;5076083;28;20826;-68
2022/03/30 09:53:56;;;;;;;21.60;16.40;;;16.90;47.50;;;;;;5075893;28;20897;-68
2022/03/30 09:56:24;;;;;;;19.30;15.70;;;17.20;47.10;;;;;;5076307;28;20459;-68
2022/03/30 09:59:00;;;;;;;23.23;19.17;;;17.40;46.20;;;;;;5077010;28;20463;-69
2022/03/30 10:01:32;;;;;;;18.37;14.63;;;17.50;44.80;;;;;;5077126;28;20975;-68
2022/03/30 10:04:02;;;;;;;17.90;14.90;;;17.50;44.80;;;;;;5076584;28;20498;-69
2022/03/30 10:06:33;;;;;;;22.43;15.53;;;17.50;45.50;;;;;;5076039;28;20551;-69
2022/03/30 10:09:00;;;;;;;16.23;14.43;;;17.60;45.60;;;;;;5077883;28;20781;-68
2022/03/30 10:11:28;;;;;;;23.57;18.20;;;17.90;45.60;;;;;;5077157;28;20497;-69
2022/03/30 10:13:58;;;;;;;33.17;29.77;;;18.30;44.30;;;;;;5076683;28;20444;-69
2022/03/30 10:16:25;;;;;;;27.97;25.03;;;18.40;43.10;;;;;;5076654;28;20870;-68
2022/03/30 10:18:53;;;;;;;19.17;16.70;;;18.70;42.80;;;;;;5075595;28;20487;-66
2022/03/30 10:21:24;;;;;;;19.60;15.90;;;18.90;42.80;;;;;;5076182;28;20845;-69
2022/03/30 10:24:31;;;;;;;22.00;15.20;;;19.30;42.00;;;;;;5075691;28;20438;-69
2022/03/30 10:27:05;;;;;;;14.30;12.47;;;19.60;40.90;;;;;;5075366;28;20812;-69
2022/03/30 10:29:32;;;;;;;15.00;12.77;;;20.10;40.40;;;;;;5075172;28;20433;-69
2022/03/30 10:32:13;;;;;;;19.93;13.87;;;20.60;39.50;;;;;;5074694;28;20488;-67
2022/03/30 10:34:51;;;;;;;14.90;12.80;;;21.10;38.60;;;;;;5075208;28;20439;-69
2022/03/30 10:37:25;;;;;;;18.13;13.57;;;21.50;37.50;;;;;;5075219;28;20437;-69
2022/03/30 10:40:05;;;;;;;17.47;12.67;;;21.90;37.40;;;;;;5074918;28;20911;-69
2022/03/30 10:43:06;;;;;;;17.60;12.77;;;22.30;35.80;;;;;;5074989;28;20830;-69
2022/03/30 10:45:40;;;;;;;23.73;13.30;;;22.70;35.10;;;;;;5075351;28;20427;-69
2022/03/30 10:48:17;;;;;;;18.40;13.13;;;23.10;33.20;;;;;;5074854;28;20432;-69
2022/03/30 10:50:46;;;;;;;18.10;13.40;;;23.50;32.70;;;;;;5074669;28;21048;-69
2022/03/30 10:53:35;;;;;;;17.53;13.40;;;23.90;31.70;;;;;;5074784;28;20477;-69
2022/03/30 10:56:36;;;;;;;15.10;13.67;;;24.40;31.70;;;;;;5075059;28;20851;-66
2022/03/30 10:59:13;;;;;;;14.87;13.47;;;25.00;30.80;;;;;;5075164;28;20426;-67
2022/03/30 11:01:41;;;;;;;15.60;13.80;;;25.50;30.30;;;;;;5075119;28;20528;-68
2022/03/30 11:04:23;;;;;;;15.13;12.27;;;26.00;29.20;;;;;;5075866;28;20447;-68
2022/03/30 11:07:40;;;;;;;14.93;12.50;;;26.50;29.10;;;;;;5075278;28;20432;-69
2022/03/30 11:10:21;;;;;;;15.30;13.70;;;26.80;27.60;;;;;;5074187;28;20969;-68
2022/03/30 11:13:24;;;;;;;20.00;17.90;;;26.80;27.50;;;;;;5074160;28;20475;-68
2022/03/30 11:16:07;;;;;;;15.27;12.83;;;27.00;27.80;;;;;;5074013;28;20911;-67
2022/03/30 11:18:36;;;;;;;16.13;13.40;;;27.40;27.50;;;;;;5074279;28;20479;-67
2022/03/30 11:21:16;;;;;;;14.70;13.17;;;27.80;27.10;;;;;;5074089;28;20468;-68
2022/03/30 11:24:11;;;;;;;15.90;14.40;;;28.30;25.80;;;;;;5073668;28;20495;-67
2022/03/30 11:27:21;;;;;;;18.10;15.43;;;28.50;26.00;;;;;;5074013;28;20904;-67
2022/03/30 11:30:04;;;;;;;14.63;13.23;;;28.60;25.40;;;;;;5073954;28;20440;-68
2022/03/30 11:32:39;;;;;;;15.87;12.13;;;28.60;25.80;;;;;;5073432;28;20489;-68
2022/03/30 11:35:10;;;;;;;15.83;14.43;;;28.60;25.60;;;;;;5073937;28;20455;-68
2022/03/30 11:37:39;;;;;;;14.40;12.93;;;28.90;25.30;;;;;;5073819;28;20431;-68
2022/03/30 11:40:08;;;;;;;15.00;13.50;;;29.30;25.00;;;;;;5073922;28;20471;-68
2022/03/30 11:42:37;;;;;;;12.60;11.37;;;29.70;24.50;;;;;;5073724;28;20552;-68
2022/03/30 11:45:15;;;;;;;14.03;12.57;;;30.10;24.80;;;;;;5073291;28;20459;-68
2022/03/30 11:47:44;;;;;;;15.60;13.97;;;30.70;24.00;;;;;;5073526;28;20439;-68
2022/03/30 11:50:13;;;;;;;17.47;15.67;;;31.20;22.90;;;;;;5073507;28;20967;-68
2022/03/30 11:52:40;;;;;;;16.07;14.57;;;31.60;22.50;;;;;;5073335;28;20542;-68
2022/03/30 11:55:08;;;;;;;15.20;13.70;;;31.90;21.90;;;;;;5073744;28;20813;-68
2022/03/30 11:57:40;;;;;;;14.50;13.10;;;32.40;21.70;;;;;;5073724;28;20501;-68
2022/03/30 12:00:11;;;;;;;16.60;13.97;;;32.60;20.90;;;;;;5073738;28;20490;-69
2022/03/30 12:02:38;;;;;;;13.60;12.30;;;32.90;20.60;;;;;;5073761;28;20468;-68
2022/03/30 12:05:07;;;;;;;14.50;13.13;;;33.20;20.70;;;;;;5073243;28;20455;-68
2022/03/30 12:07:36;;;;;;;16.87;15.20;;;33.40;20.00;;;;;;5073550;28;20453;-68
2022/03/30 12:10:05;;;;;;;14.57;13.27;;;33.70;18.90;;;;;;5073487;28;20456;-68
2022/03/30 12:12:37;;;;;;;15.80;14.30;;;33.70;18.90;;;;;;5072908;28;20519;-68
2022/03/30 12:15:06;;;;;;;15.90;13.03;;;33.80;19.10;;;;;;5073469;28;20528;-68
2022/03/30 12:17:36;;;;;;;16.53;14.93;;;34.10;19.30;;;;;;5073443;28;20416;-68
2022/03/30 12:20:06;;;;;;;15.30;13.63;;;34.30;19.10;;;;;;5073439;28;20874;-68
2022/03/30 12:22:35;;;;;;;16.30;13.70;;;34.50;18.30;;;;;;5073354;28;20472;-68
2022/03/30 12:25:03;;;;;;;14.07;12.80;;;34.50;18.90;;;;;;5073378;28;20808;-68
2022/03/30 12:27:41;;;;;;;13.60;12.47;;;34.70;18.80;;;;;;5073578;28;20432;-68
2022/03/30 12:30:09;;;;;;;15.30;13.80;;;35.00;18.60;;;;;;5073628;28;20432;-68
2022/03/30 12:32:37;;;;;;;14.33;12.93;;;35.00;17.80;;;;;;5073256;28;20535;-68
2022/03/30 12:35:11;;;;;;;15.93;14.33;;;35.10;18.30;;;;;;5073363;28;20833;-68
2022/03/30 12:37:38;;;;;;;13.77;12.37;;;35.30;17.90;;;;;;5074132;28;20427;-68
2022/03/30 12:40:11;;;;;;;13.73;12.43;;;35.50;17.70;;;;;;5074097;28;20959;-69
2022/03/30 12:42:38;;;;;;;15.43;13.80;;;35.70;17.10;;;;;;5073733;28;21046;-68
2022/03/30 12:45:10;;;;;;;13.93;12.53;;;35.80;16.60;;;;;;5073619;28;20719;-68
2022/03/30 12:47:45;;;;;;;14.90;13.37;;;35.70;17.10;;;;;;5073918;28;20458;-68